Time;durP1;ratioP1;P1;durP2;ratioP2;P2;SDS_P1;SDS_P2;PMS_P1;PMS_P2;Temp;Humidity;BMP_temperature;BMP_pressure;BME280_temperature;BME280_humidity;BME280_pressure;Samples;Min_cycle;Max_cycle;Signal;HPM_P1;HPM_P2
2021/12/04 00:00:04;;;;;;;6.35;5.75;;;7.10;76.80;;;;;;5024531;28;20069;-75
2021/12/04 00:02:39;;;;;;;6.95;5.72;;;7.00;76.70;;;;;;5025606;28;20492;-74
2021/12/04 00:05:07;;;;;;;7.57;6.00;;;7.00;76.80;;;;;;5041856;28;20037;-84
2021/12/04 00:07:35;;;;;;;6.38;5.53;;;7.00;76.80;;;;;;5026446;28;20026;-74
2021/12/04 00:10:03;;;;;;;7.63;6.18;;;7.00;76.80;;;;;;5026943;28;20496;-82
2021/12/04 00:12:31;;;;;;;7.63;6.15;;;6.90;76.70;;;;;;5026592;28;20022;-74
2021/12/04 00:14:57;;;;;;;7.40;6.03;;;7.00;76.90;;;;;;5026361;28;20033;-73
2021/12/04 00:17:24;;;;;;;7.90;5.97;;;7.00;77.00;;;;;;5042761;28;20033;-74
2021/12/04 00:19:50;;;;;;;6.65;5.82;;;7.00;77.00;;;;;;5040447;28;20026;-75
2021/12/04 00:22:16;;;;;;;7.55;6.13;;;6.90;76.80;;;;;;5024317;28;20049;-75
2021/12/04 00:24:42;;;;;;;8.15;5.95;;;6.90;76.90;;;;;;5026320;28;20022;-73
2021/12/04 00:27:09;;;;;;;6.55;5.90;;;6.90;76.90;;;;;;5026898;28;20042;-74
2021/12/04 00:29:35;;;;;;;6.80;6.10;;;6.90;76.90;;;;;;5027435;28;20124;-87
2021/12/04 00:32:52;;;;;;;7.57;5.55;;;6.90;77.00;;;;;;5029407;28;20180;-81
2021/12/04 00:34:55;;;;;;;6.95;6.03;;;6.90;77.10;;;;;;5014091;28;20045;-75
2021/12/04 00:51:06;;;;;;;8.20;6.72;;;7.00;77.40;;;;;;5030185;28;20035;-73
2021/12/04 00:53:32;;;;;;;8.25;6.43;;;6.90;77.20;;;;;;5011651;28;20034;-76
2021/12/04 00:55:58;;;;;;;6.95;5.72;;;7.00;77.50;;;;;;5028235;28;20160;-73
2021/12/04 00:58:24;;;;;;;7.15;6.30;;;6.90;77.30;;;;;;5028167;28;20033;-77
2021/12/04 01:00:50;;;;;;;7.35;5.82;;;7.00;77.60;;;;;;5028676;28;20052;-74
2021/12/04 01:03:17;;;;;;;7.50;6.63;;;7.00;77.60;;;;;;5023630;28;20030;-74
2021/12/04 01:05:43;;;;;;;5.97;5.43;;;7.00;77.70;;;;;;5009386;28;20557;-73
2021/12/04 01:08:09;;;;;;;6.82;6.03;;;7.00;77.70;;;;;;5009678;28;20036;-74
2021/12/04 01:10:35;;;;;;;6.63;6.03;;;7.00;77.70;;;;;;5008683;28;20042;-74
2021/12/04 01:13:04;;;;;;;6.90;6.03;;;7.00;77.80;;;;;;5013330;28;20025;-73
2021/12/04 01:15:30;;;;;;;7.18;6.45;;;7.00;77.80;;;;;;5029582;28;20116;-75
2021/12/04 01:17:56;;;;;;;7.32;6.25;;;7.00;77.80;;;;;;5027626;28;20033;-73
2021/12/04 01:20:22;;;;;;;7.05;6.35;;;7.00;77.90;;;;;;5028957;28;20041;-73
2021/12/04 01:22:48;;;;;;;7.20;6.25;;;7.10;78.10;;;;;;5029294;28;20029;-77
2021/12/04 01:25:14;;;;;;;7.78;6.72;;;7.10;78.10;;;;;;5028911;28;20495;-73
2021/12/04 01:27:42;;;;;;;8.68;6.57;;;7.10;78.20;;;;;;5029912;28;20030;-88
2021/12/04 01:30:08;;;;;;;7.70;6.80;;;7.10;78.20;;;;;;5029461;28;20186;-83
2021/12/04 01:32:34;;;;;;;7.95;6.95;;;7.10;78.20;;;;;;5028921;28;20045;-82
2021/12/04 01:35:00;;;;;;;7.88;7.07;;;7.10;78.20;;;;;;5031069;28;20037;-85
2021/12/04 01:37:26;;;;;;;7.53;6.82;;;7.10;78.30;;;;;;5029986;28;20321;-78
2021/12/04 01:39:52;;;;;;;7.72;6.85;;;7.10;78.30;;;;;;5027952;28;20382;-85
2021/12/04 01:42:20;;;;;;;9.15;6.97;;;7.10;78.30;;;;;;5028317;28;20436;-74
2021/12/04 01:44:50;;;;;;;7.90;7.10;;;7.10;78.30;;;;;;5027778;28;20124;-75
2021/12/04 01:47:21;;;;;;;7.03;6.30;;;7.10;78.40;;;;;;5028775;28;20432;-77
2021/12/04 01:49:49;;;;;;;8.77;6.18;;;7.10;78.40;;;;;;5040376;28;20692;-76
2021/12/04 01:52:17;;;;;;;8.95;6.97;;;7.10;78.40;;;;;;5006681;28;20091;-73
2021/12/04 01:54:45;;;;;;;8.20;6.40;;;7.10;78.90;;;;;;5007001;28;20029;-73
2021/12/04 01:57:15;;;;;;;7.00;6.10;;;7.10;78.40;;;;;;5007191;28;20030;-73
2021/12/04 01:59:43;;;;;;;7.65;6.32;;;7.20;78.60;;;;;;5006725;28;20091;-73
2021/12/04 02:02:09;;;;;;;8.52;7.03;;;7.20;78.60;;;;;;5007114;28;20057;-73
2021/12/04 02:04:36;;;;;;;6.97;6.05;;;7.10;78.50;;;;;;5008900;28;20037;-73
2021/12/04 02:07:05;;;;;;;8.88;6.15;;;7.10;78.50;;;;;;5008729;28;20026;-76
2021/12/04 02:09:33;;;;;;;6.72;6.05;;;7.20;78.60;;;;;;5008430;28;20659;-73
2021/12/04 02:11:59;;;;;;;8.93;6.35;;;7.10;78.50;;;;;;5007871;28;20029;-74
2021/12/04 02:14:25;;;;;;;7.32;6.03;;;7.10;78.50;;;;;;5023532;28;20033;-76
2021/12/04 02:16:51;;;;;;;8.77;6.43;;;7.10;78.50;;;;;;5011260;28;20120;-73
2021/12/04 02:19:18;;;;;;;10.27;6.60;;;7.20;78.70;;;;;;5030479;28;20452;-75
2021/12/04 02:21:44;;;;;;;10.02;7.43;;;7.20;78.80;;;;;;5027207;28;20444;-73
2021/12/04 02:24:10;;;;;;;9.13;6.63;;;7.20;78.80;;;;;;5028315;28;20037;-73
2021/12/04 02:26:36;;;;;;;12.15;6.72;;;7.20;78.80;;;;;;5028462;28;20044;-74
2021/12/04 02:29:02;;;;;;;11.13;6.68;;;7.20;78.80;;;;;;5028410;28;20076;-74
2021/12/04 02:31:28;;;;;;;13.38;7.13;;;7.20;78.80;;;;;;5021272;28;20038;-74
2021/12/04 02:33:54;;;;;;;13.48;6.82;;;7.20;78.80;;;;;;5018523;28;20123;-73
2021/12/04 02:36:20;;;;;;;11.40;7.70;;;7.20;78.90;;;;;;5009016;28;20038;-73
2021/12/04 02:38:51;;;;;;;9.65;7.28;;;7.20;78.90;;;;;;5009316;28;20060;-73
2021/12/04 02:41:19;;;;;;;10.45;7.75;;;7.20;78.90;;;;;;5009414;28;20050;-74
2021/12/04 02:43:46;;;;;;;9.63;7.55;;;7.20;79.40;;;;;;5009707;28;20041;-74
2021/12/04 02:46:16;;;;;;;14.05;8.45;;;7.20;78.90;;;;;;5015613;28;20099;-77
2021/12/04 02:48:43;;;;;;;17.45;9.32;;;7.20;79.00;;;;;;5019992;28;20188;-74
2021/12/04 02:51:10;;;;;;;14.35;9.90;;;7.30;79.20;;;;;;5011514;28;20030;-75
2021/12/04 02:53:37;;;;;;;16.60;8.85;;;7.30;79.20;;;;;;5010820;28;20133;-80
2021/12/04 02:56:05;;;;;;;13.90;10.02;;;7.30;79.20;;;;;;5012286;28;20064;-75
2021/12/04 02:58:33;;;;;;;16.90;10.88;;;7.30;79.30;;;;;;5010989;28;20464;-77
2021/12/04 03:01:02;;;;;;;13.85;10.07;;;7.30;79.30;;;;;;5011687;28;20501;-76
2021/12/04 03:03:30;;;;;;;17.27;10.90;;;7.40;79.50;;;;;;5012251;28;20381;-75
2021/12/04 03:05:57;;;;;;;16.48;11.48;;;7.40;79.50;;;;;;5010883;28;20599;-80
2021/12/04 03:08:23;;;;;;;16.38;10.48;;;7.40;79.50;;;;;;5012667;28;20022;-74
2021/12/04 03:10:49;;;;;;;15.32;11.50;;;7.40;79.50;;;;;;4994347;28;20048;-73
2021/12/04 03:13:19;;;;;;;15.13;11.25;;;7.50;79.70;;;;;;5012309;28;20485;-75
2021/12/04 03:15:48;;;;;;;16.63;10.60;;;7.50;79.70;;;;;;5012148;28;20080;-75
2021/12/04 03:18:14;;;;;;;15.30;10.95;;;7.50;79.70;;;;;;5012145;28;20033;-74
2021/12/04 03:20:42;;;;;;;14.13;10.20;;;7.50;79.70;;;;;;5011941;28;20038;-74
2021/12/04 03:23:16;;;;;;;13.10;10.57;;;7.50;79.70;;;;;;5011887;28;20053;-74
2021/12/04 03:25:46;;;;;;;14.73;10.27;;;7.50;79.70;;;;;;5012017;28;20492;-73
2021/12/04 03:28:14;;;;;;;12.48;10.13;;;7.50;79.70;;;;;;5010416;28;20026;-74
2021/12/04 03:30:50;;;;;;;16.77;11.98;;;7.60;79.90;;;;;;5010269;28;20060;-77
2021/12/04 03:41:13;;;;;;;13.07;10.20;;;7.60;79.80;;;;;;5011401;28;20042;-73
2021/12/04 03:43:39;;;;;;;16.30;11.25;;;7.60;79.80;;;;;;5011725;28;20175;-73
2021/12/04 03:46:07;;;;;;;12.57;10.73;;;7.60;79.90;;;;;;5011419;28;20030;-73
2021/12/04 03:51:02;;;;;;;16.90;12.65;;;7.60;79.90;;;;;;5011348;28;20037;-76
2021/12/04 03:53:28;;;;;;;15.98;11.95;;;7.60;79.90;;;;;;5011579;28;20034;-78
2021/12/04 03:55:54;;;;;;;15.93;12.80;;;7.70;80.10;;;;;;5010288;28;20057;-74
2021/12/04 03:58:21;;;;;;;14.18;11.68;;;7.70;80.10;;;;;;5011594;28;20048;-72
2021/12/04 04:00:47;;;;;;;13.82;11.75;;;7.70;80.10;;;;;;5010835;28;20042;-73
2021/12/04 04:03:14;;;;;;;13.13;11.73;;;7.70;80.10;;;;;;5009822;28;20112;-76
2021/12/04 04:05:40;;;;;;;14.40;11.52;;;7.70;80.10;;;;;;5009530;28;20072;-72
2021/12/04 04:08:07;;;;;;;15.10;11.02;;;7.70;80.10;;;;;;5010201;28;20033;-73
2021/12/04 04:10:33;;;;;;;16.60;12.80;;;7.70;80.10;;;;;;5011329;28;20058;-73
2021/12/04 04:12:58;;;;;;;14.52;11.80;;;7.70;80.00;;;;;;5011113;28;20060;-74
2021/12/04 04:15:25;;;;;;;16.38;12.77;;;7.80;80.30;;;;;;5011209;28;20038;-84
2021/12/04 04:17:52;;;;;;;17.02;12.88;;;7.80;80.20;;;;;;5011598;28;20026;-73
2021/12/04 04:20:20;;;;;;;16.77;12.20;;;7.80;80.30;;;;;;5010273;28;20037;-73
2021/12/04 04:22:48;;;;;;;17.13;13.05;;;7.70;80.10;;;;;;5009935;28;20029;-75
2021/12/04 04:25:16;;;;;;;14.32;12.32;;;7.80;80.20;;;;;;5010214;28;20028;-74
2021/12/04 04:27:43;;;;;;;14.85;11.68;;;7.80;80.20;;;;;;5011025;28;20084;-73
2021/12/04 04:30:14;;;;;;;16.48;11.65;;;7.80;80.30;;;;;;5010052;28;20037;-76
2021/12/04 04:32:41;;;;;;;13.00;10.70;;;7.80;80.30;;;;;;5025841;28;20112;-80
2021/12/04 04:35:16;;;;;;;13.88;11.45;;;7.80;80.30;;;;;;5011139;28;20061;-73
2021/12/04 04:59:41;;;;;;;10.65;8.07;;;7.90;80.20;;;;;;5011491;28;20413;-75
2021/12/04 05:02:36;;;;;;;10.38;8.20;;;7.90;80.20;;;;;;5010967;28;20084;-73
2021/12/04 05:13:08;;;;;;;10.07;6.95;;;7.90;80.00;;;;;;5010770;28;20034;-73
2021/12/04 05:15:43;;;;;;;9.73;6.35;;;7.90;80.00;;;;;;5009359;28;20137;-73
2021/12/04 05:20:53;;;;;;;8.27;6.15;;;7.90;80.50;;;;;;5014362;28;20117;-78
2021/12/04 05:23:21;;;;;;;11.10;6.93;;;7.90;80.00;;;;;;5014374;28;20084;-74
2021/12/04 05:25:47;;;;;;;8.98;5.95;;;7.80;79.80;;;;;;5013195;28;20049;-73
2021/12/04 05:28:13;;;;;;;8.15;6.25;;;7.80;79.80;;;;;;5014254;28;20120;-83
2021/12/04 05:30:39;;;;;;;7.28;6.15;;;7.80;79.80;;;;;;5013968;28;20482;-78
2021/12/04 05:33:06;;;;;;;9.10;6.18;;;7.80;79.80;;;;;;5013428;28;20068;-74
2021/12/04 05:35:32;;;;;;;6.53;5.50;;;7.80;79.80;;;;;;5014172;28;20065;-73
2021/12/04 05:37:58;;;;;;;7.55;5.25;;;7.70;79.60;;;;;;5014500;28;20426;-81
2021/12/04 05:40:24;;;;;;;7.93;5.75;;;7.70;79.60;;;;;;5018591;28;20042;-78
2021/12/04 05:42:50;;;;;;;6.70;5.03;;;7.80;79.70;;;;;;5021527;28;20030;-84
2021/12/04 05:45:24;;;;;;;7.18;5.03;;;7.80;79.70;;;;;;5034501;28;20065;-73
2021/12/04 05:48:00;;;;;;;6.95;5.30;;;7.80;79.70;;;;;;5027604;28;20495;-75
2021/12/04 05:55:28;;;;;;;9.07;4.32;;;7.70;79.50;;;;;;5012751;28;20037;-79
2021/12/04 05:57:54;;;;;;;8.35;4.95;;;7.70;79.50;;;;;;5016823;28;20547;-76
2021/12/04 06:00:24;;;;;;;6.05;4.35;;;7.70;79.50;;;;;;5010411;28;20034;-74
2021/12/04 06:02:51;;;;;;;6.57;4.18;;;7.70;79.50;;;;;;5009346;28;20040;-75
2021/12/04 06:05:17;;;;;;;4.88;4.00;;;7.70;79.50;;;;;;5011158;28;20435;-76
2021/12/04 06:07:44;;;;;;;5.03;4.13;;;7.70;79.50;;;;;;5008184;28;20504;-84
2021/12/04 06:10:10;;;;;;;9.15;3.72;;;7.70;79.50;;;;;;5016450;28;20030;-74
2021/12/04 06:12:37;;;;;;;9.77;4.43;;;7.70;79.50;;;;;;5014823;28;20358;-85
2021/12/04 06:15:04;;;;;;;6.57;4.13;;;7.60;79.30;;;;;;5028437;28;20029;-73
2021/12/04 06:17:31;;;;;;;8.55;4.88;;;7.60;79.20;;;;;;5028329;28;20029;-76
2021/12/04 06:22:42;;;;;;;10.52;4.18;;;7.60;79.20;;;;;;5028030;28;20045;-74
2021/12/04 06:25:09;;;;;;;6.95;3.58;;;7.60;79.20;;;;;;5027044;28;20441;-73
2021/12/04 06:27:35;;;;;;;8.52;3.90;;;7.60;79.20;;;;;;5026453;28;20484;-75
2021/12/04 06:30:08;;;;;;;5.25;4.03;;;7.60;79.20;;;;;;5027405;28;20036;-75
2021/12/04 06:32:37;;;;;;;7.65;3.05;;;7.60;79.20;;;;;;5023866;28;20036;-74
2021/12/04 06:35:05;;;;;;;7.00;3.03;;;7.50;79.00;;;;;;5018341;28;20091;-73
2021/12/04 06:37:31;;;;;;;5.53;2.92;;;7.50;79.00;;;;;;5006107;28;20109;-80
2021/12/04 06:39:57;;;;;;;8.80;4.05;;;7.50;79.00;;;;;;5012953;28;20061;-81
2021/12/04 06:42:23;;;;;;;7.07;3.40;;;7.50;78.90;;;;;;5013892;28;20042;-73
2021/12/04 06:44:53;;;;;;;6.63;2.90;;;7.50;78.90;;;;;;5007568;28;20551;-76
2021/12/04 06:47:19;;;;;;;7.65;3.80;;;7.50;78.90;;;;;;5007252;28;20092;-75
2021/12/04 06:49:45;;;;;;;6.68;2.70;;;7.50;78.90;;;;;;5007708;28;20034;-74
2021/12/04 06:52:20;;;;;;;4.85;2.70;;;7.50;78.80;;;;;;5007656;28;20038;-73
2021/12/04 06:55:01;;;;;;;9.38;2.88;;;7.50;78.80;;;;;;5007361;28;20034;-82
2021/12/04 06:57:29;;;;;;;5.88;2.55;;;7.50;78.80;;;;;;5005905;28;20029;-74
2021/12/04 06:59:56;;;;;;;6.55;2.55;;;7.40;78.60;;;;;;5005986;28;20300;-83
2021/12/04 07:02:22;;;;;;;8.20;3.00;;;7.40;78.60;;;;;;5007076;28;20034;-74
2021/12/04 07:04:48;;;;;;;6.57;2.63;;;7.40;78.60;;;;;;5020576;28;20284;-75
2021/12/04 07:07:15;;;;;;;6.68;2.55;;;7.40;78.60;;;;;;5037966;28;20072;-74
2021/12/04 07:09:43;;;;;;;4.65;2.63;;;7.40;78.50;;;;;;5025493;28;20489;-81
2021/12/04 07:12:10;;;;;;;4.85;2.20;;;7.40;78.60;;;;;;5028237;28;20385;-82
2021/12/04 07:14:36;;;;;;;5.20;3.17;;;7.30;78.40;;;;;;5021522;28;20500;-76
2021/12/04 07:17:04;;;;;;;8.55;2.05;;;7.30;78.30;;;;;;5017096;28;20033;-79
2021/12/04 07:19:31;;;;;;;5.07;2.35;;;7.30;78.30;;;;;;5012106;28;20037;-74
2021/12/04 07:21:58;;;;;;;5.90;2.33;;;7.30;78.30;;;;;;5007297;28;20073;-74
2021/12/04 07:24:26;;;;;;;8.70;2.38;;;7.30;78.30;;;;;;5012953;28;20026;-73
2021/12/04 07:26:52;;;;;;;6.45;1.80;;;7.30;78.30;;;;;;5006844;28;20033;-72
2021/12/04 07:29:18;;;;;;;8.00;2.70;;;7.30;78.30;;;;;;5018574;28;20152;-75
2021/12/04 07:31:44;;;;;;;7.13;2.40;;;7.30;78.30;;;;;;5006839;28;20578;-76
2021/12/04 07:34:10;;;;;;;4.82;1.80;;;7.30;78.40;;;;;;5024372;28;20041;-78
2021/12/04 07:36:36;;;;;;;4.40;2.10;;;7.30;78.40;;;;;;5027758;28;20079;-74
2021/12/04 07:39:04;;;;;;;10.02;2.25;;;7.30;78.50;;;;;;5026011;28;20026;-81
2021/12/04 07:41:30;;;;;;;10.48;2.58;;;7.30;78.70;;;;;;5025822;28;20048;-76
2021/12/04 07:43:56;;;;;;;11.98;3.60;;;7.40;79.20;;;;;;5008628;28;20400;-75
2021/12/04 07:46:23;;;;;;;10.77;2.40;;;7.50;79.40;;;;;;5025896;28;20039;-77
2021/12/04 07:48:49;;;;;;;8.77;1.95;;;7.60;79.60;;;;;;5028634;28;20048;-76
2021/12/04 07:51:17;;;;;;;9.25;2.22;;;7.70;79.70;;;;;;5025049;28;20120;-73
2021/12/04 07:53:46;;;;;;;7.50;2.42;;;7.70;79.70;;;;;;5041766;28;20116;-72
2021/12/04 07:56:16;;;;;;;8.80;1.42;;;7.70;79.80;;;;;;5026435;28;20554;-73
2021/12/04 07:58:42;;;;;;;6.22;1.85;;;7.70;79.80;;;;;;5015587;28;20029;-71
2021/12/04 08:01:12;;;;;;;6.70;1.75;;;7.70;79.90;;;;;;5010624;28;20129;-72
2021/12/04 08:03:39;;;;;;;7.00;1.67;;;7.70;79.80;;;;;;5010299;28;20037;-73
2021/12/04 08:06:05;;;;;;;7.60;2.65;;;7.70;79.80;;;;;;5026194;28;20040;-76
2021/12/04 08:08:31;;;;;;;8.05;2.13;;;7.70;79.80;;;;;;5018263;28;20342;-74
2021/12/04 08:10:58;;;;;;;8.13;1.60;;;7.60;79.70;;;;;;5022146;28;20034;-74
2021/12/04 08:13:24;;;;;;;9.43;1.70;;;7.60;79.70;;;;;;5006536;28;20026;-79
2021/12/04 08:15:50;;;;;;;5.55;1.83;;;7.60;79.70;;;;;;5022649;28;20572;-74
2021/12/04 08:18:16;;;;;;;6.78;1.80;;;7.60;79.70;;;;;;5004038;28;20133;-74
2021/12/04 08:20:42;;;;;;;4.75;1.50;;;7.60;79.80;;;;;;5005481;28;20120;-74
2021/12/04 08:23:08;;;;;;;5.95;1.98;;;7.50;79.60;;;;;;5005838;28;20030;-73
2021/12/04 08:25:34;;;;;;;7.55;2.00;;;7.50;79.60;;;;;;5006055;28;20153;-72
2021/12/04 08:28:01;;;;;;;10.68;2.03;;;7.50;79.60;;;;;;5011535;28;20052;-74
2021/12/04 08:30:31;;;;;;;5.15;1.38;;;7.50;79.70;;;;;;5006746;28;20034;-71
2021/12/04 08:32:57;;;;;;;11.75;1.92;;;7.50;79.90;;;;;;5012851;28;20194;-72
2021/12/04 08:35:25;;;;;;;13.52;2.35;;;7.60;80.10;;;;;;5024976;28;20112;-71
2021/12/04 08:37:54;;;;;;;12.40;2.65;;;7.60;80.20;;;;;;5025660;28;20044;-73
2021/12/04 08:40:20;;;;;;;6.63;1.58;;;7.60;80.20;;;;;;5024182;28;20405;-72
2021/12/04 08:42:47;;;;;;;10.55;1.90;;;7.70;80.40;;;;;;5025828;28;20026;-74
2021/12/04 08:45:15;;;;;;;13.43;3.00;;;7.70;80.80;;;;;;5025361;28;20041;-73
2021/12/04 08:47:41;;;;;;;12.23;2.47;;;7.90;81.60;;;;;;5007906;28;20550;-72
2021/12/04 08:50:15;;;;;;;10.93;2.10;;;8.10;82.10;;;;;;5023894;28;20076;-72
2021/12/04 08:52:41;;;;;;;8.52;2.38;;;8.30;82.30;;;;;;5026411;28;20401;-72
2021/12/04 08:55:08;;;;;;;7.68;2.30;;;8.50;82.40;;;;;;5028824;28;20531;-72
2021/12/04 08:57:34;;;;;;;9.40;1.98;;;8.60;82.40;;;;;;5029259;28;20145;-72
2021/12/04 09:00:00;;;;;;;8.07;1.95;;;8.60;82.30;;;;;;5029339;28;20101;-72
2021/12/04 09:02:26;;;;;;;12.93;2.05;;;8.60;82.80;;;;;;5029194;28;20034;-73
2021/12/04 09:04:54;;;;;;;8.75;1.88;;;8.60;82.50;;;;;;5027272;28;20035;-71
2021/12/04 09:07:20;;;;;;;8.85;2.97;;;8.70;82.90;;;;;;5027790;28;20025;-72
2021/12/04 09:09:47;;;;;;;7.60;1.85;;;8.70;83.00;;;;;;5029493;28;20029;-73
2021/12/04 09:12:14;;;;;;;7.05;1.92;;;8.90;83.50;;;;;;5029496;28;20543;-72
2021/12/04 09:14:46;;;;;;;23.85;4.57;;;9.00;83.80;;;;;;5029895;28;20084;-75
2021/12/04 09:17:14;;;;;;;14.07;3.10;;;9.00;83.80;;;;;;5029362;28;20083;-72
2021/12/04 09:19:40;;;;;;;9.05;2.88;;;9.10;83.90;;;;;;5028506;28;20368;-73
2021/12/04 09:22:11;;;;;;;8.35;1.73;;;9.20;84.00;;;;;;5028358;28;20030;-74
2021/12/04 09:24:41;;;;;;;13.70;2.33;;;9.30;84.20;;;;;;5029973;28;20026;-74
2021/12/04 10:34:52;;;;;;;4.53;1.60;;;9.80;84.10;;;;;;5014078;28;20097;-81
2021/12/04 10:37:28;;;;;;;5.72;1.70;;;9.80;84.10;;;;;;5010451;28;20186;-84
2021/12/04 10:40:01;;;;;;;5.35;1.63;;;9.80;84.10;;;;;;5011755;28;20034;-83
2021/12/04 10:42:33;;;;;;;;;;;9.90;84.20;;;;;;5015713;28;20577;-76
2021/12/04 10:44:59;;;;;;;7.75;1.25;;;9.90;84.20;;;;;;5031376;28;20375;-81
2021/12/04 10:47:27;;;;;;;6.40;1.48;;;9.90;84.10;;;;;;5029935;28;20099;-81
2021/12/04 10:55:32;;;;;;;9.60;1.60;;;9.90;84.00;;;;;;5011808;28;20041;-77
2021/12/04 11:00:58;;;;;;;9.83;2.73;;;9.90;83.90;;;;;;5013483;28;20040;-78
2021/12/04 11:03:50;;;;;;;3.70;1.20;;;9.90;83.90;;;;;;5025055;28;20279;-79
2021/12/04 11:22:59;;;;;;;4.25;1.48;;;10.10;83.90;;;;;;5028056;28;20038;-79
2021/12/04 11:28:15;;;;;;;4.20;1.50;;;10.10;83.80;;;;;;5018299;28;20034;-78
2021/12/04 11:41:38;;;;;;;5.43;1.42;;;10.20;83.70;;;;;;5033761;28;20040;-85
2021/12/04 11:44:12;;;;;;;8.43;1.92;;;10.20;83.70;;;;;;5038188;28;20040;-85
2021/12/04 11:46:44;;;;;;;4.60;1.13;;;10.30;83.90;;;;;;5039797;28;20041;-75
2021/12/04 11:49:16;;;;;;;7.93;1.20;;;10.40;83.90;;;;;;5022947;28;20034;-82
2021/12/04 11:51:57;;;;;;;4.20;1.23;;;10.40;83.80;;;;;;5014145;28;20034;-82
2021/12/04 11:54:53;;;;;;;4.45;1.58;;;10.40;83.70;;;;;;5015276;28;20120;-86
2021/12/04 11:57:32;;;;;;;4.20;1.35;;;10.50;83.80;;;;;;5030945;28;20030;-79
2021/12/04 12:00:26;;;;;;;6.90;1.10;;;10.50;83.70;;;;;;5012549;28;20045;-88
2021/12/04 12:03:14;;;;;;;4.47;1.02;;;10.50;83.60;;;;;;5019426;28;20087;-80
2021/12/04 12:05:59;;;;;;;6.65;1.00;;;10.60;83.70;;;;;;5033146;28;20041;-81
2021/12/04 12:08:42;;;;;;;8.13;1.38;;;10.60;83.70;;;;;;5030916;28;20485;-77
2021/12/04 12:11:20;;;;;;;8.43;2.00;;;10.60;83.60;;;;;;5031449;28;20030;-78
2021/12/04 12:13:50;;;;;;;5.00;1.40;;;10.60;83.50;;;;;;5031872;28;20056;-80
2021/12/04 12:16:26;;;;;;;4.97;1.25;;;10.60;83.50;;;;;;5030769;28;20032;-77
2021/12/04 12:19:03;;;;;;;7.18;1.40;;;10.70;83.60;;;;;;5030219;28;20033;-73
2021/12/04 12:21:45;;;;;;;7.95;1.30;;;10.60;83.40;;;;;;5031052;28;20091;-73
2021/12/04 12:27:15;;;;;;;6.82;1.20;;;10.60;83.20;;;;;;5025661;28;20500;-79
2021/12/04 12:33:19;;;;;;;7.03;2.33;;;10.80;83.40;;;;;;5025886;28;20050;-81
2021/12/04 12:36:04;;;;;;;7.70;1.45;;;10.80;83.30;;;;;;5024901;28;20354;-81
2021/12/04 12:38:56;;;;;;;5.40;2.35;;;10.90;83.30;;;;;;5025113;28;20370;-77
2021/12/04 12:41:40;;;;;;;6.65;1.05;;;10.90;83.00;;;;;;5025814;28;20067;-73
2021/12/04 12:44:06;;;;;;;6.95;1.27;;;11.00;82.90;;;;;;5025799;28;20124;-79
2021/12/04 12:46:52;;;;;;;29.58;26.75;;;11.10;82.90;;;;;;5025460;28;20096;-75
2021/12/04 12:49:24;;;;;;;15.45;14.07;;;11.10;82.90;;;;;;5025298;28;20041;-73
2021/12/04 12:52:19;;;;;;;19.40;12.15;;;11.30;83.50;;;;;;5025783;28;20424;-75
2021/12/04 12:55:05;;;;;;;15.90;12.60;;;11.50;83.80;;;;;;5025511;28;20029;-79
2021/12/04 12:57:40;;;;;;;13.77;11.23;;;11.60;83.50;;;;;;5025708;28;20029;-73
2021/12/04 13:14:16;;;;;;;8.93;7.72;;;11.80;82.50;;;;;;5040722;28;20313;-82
2021/12/04 13:16:58;;;;;;;8.57;7.68;;;11.80;82.40;;;;;;5024413;28;20030;-75
2021/12/04 13:19:25;;;;;;;9.05;7.78;;;11.70;82.20;;;;;;5008424;28;20033;-80
2021/12/04 13:21:59;;;;;;;10.55;7.28;;;11.70;82.20;;;;;;5026151;28;20175;-79
2021/12/04 13:24:29;;;;;;;8.35;7.18;;;11.70;82.00;;;;;;5025337;28;20029;-78
2021/12/04 13:26:57;;;;;;;8.57;6.70;;;11.70;81.90;;;;;;5026120;28;20120;-81
2021/12/04 13:29:26;;;;;;;8.27;6.28;;;11.60;81.60;;;;;;5026099;28;20034;-75
2021/12/04 13:31:54;;;;;;;7.80;6.07;;;11.60;81.50;;;;;;5040594;28;20287;-79
2021/12/04 13:34:29;;;;;;;11.02;6.38;;;11.60;81.50;;;;;;5025585;28;20094;-77
2021/12/04 13:36:58;;;;;;;11.15;6.80;;;11.60;81.30;;;;;;5025271;28;20086;-75
2021/12/04 13:39:25;;;;;;;10.38;5.70;;;11.60;81.20;;;;;;5026168;28;20025;-76
2021/12/04 13:41:53;;;;;;;7.35;6.03;;;11.60;81.10;;;;;;5028433;28;20512;-80
2021/12/04 13:44:23;;;;;;;8.55;5.03;;;11.60;81.00;;;;;;5040568;28;20034;-78
2021/12/04 13:46:52;;;;;;;10.20;4.68;;;11.50;80.70;;;;;;5008805;28;20064;-77
2021/12/04 13:49:21;;;;;;;6.95;4.75;;;11.50;80.60;;;;;;5009512;28;20539;-75
2021/12/04 13:52:04;;;;;;;9.30;4.47;;;11.50;80.50;;;;;;5009485;28;20414;-78
2021/12/04 13:54:32;;;;;;;6.47;3.90;;;11.40;80.30;;;;;;5009004;28;20604;-75
2021/12/04 13:56:58;;;;;;;8.43;4.05;;;11.40;80.30;;;;;;5008725;28;20038;-78
2021/12/04 13:59:27;;;;;;;5.93;4.00;;;11.30;80.10;;;;;;5008667;28;20030;-75
2021/12/04 14:01:54;;;;;;;8.70;4.00;;;11.30;80.00;;;;;;5007722;28;20037;-78
2021/12/04 14:04:20;;;;;;;6.82;3.60;;;11.20;79.90;;;;;;5007984;28;20300;-80
2021/12/04 14:06:51;;;;;;;4.55;3.92;;;11.20;79.80;;;;;;5008503;28;20485;-77
2021/12/04 14:09:18;;;;;;;6.07;3.90;;;11.20;79.70;;;;;;5008621;28;20033;-75
2021/12/04 14:11:45;;;;;;;6.32;3.42;;;11.20;79.70;;;;;;5008589;28;20184;-74
2021/12/04 14:14:13;;;;;;;7.68;4.05;;;11.10;79.50;;;;;;5008828;28;20034;-76
2021/12/04 14:16:41;;;;;;;8.40;3.40;;;11.10;79.40;;;;;;5007373;28;20509;-82
2021/12/04 14:19:27;;;;;;;8.40;2.53;;;11.10;79.40;;;;;;5008960;28;20038;-79
2021/12/04 14:21:58;;;;;;;10.15;2.15;;;11.10;79.20;;;;;;5007620;28;20052;-76
2021/12/04 14:24:30;;;;;;;6.38;1.50;;;11.00;78.70;;;;;;5026322;28;20033;-78
2021/12/04 14:26:57;;;;;;;9.10;1.97;;;11.00;77.90;;;;;;5043698;28;20537;-73
2021/12/04 14:29:26;;;;;;;10.48;2.08;;;10.80;77.10;;;;;;5026751;28;20444;-74
2021/12/04 14:31:53;;;;;;;7.40;1.55;;;10.70;76.50;;;;;;5026498;28;20049;-73
2021/12/04 14:34:25;;;;;;;7.93;1.52;;;10.60;75.80;;;;;;5027543;28;20072;-76
2021/12/04 14:37:13;;;;;;;13.43;2.40;;;10.50;74.90;;;;;;5028330;28;20029;-78
2021/12/04 14:39:42;;;;;;;5.25;2.08;;;10.40;74.10;;;;;;5027932;28;20261;-79
2021/12/04 14:42:18;;;;;;;9.95;2.03;;;10.30;74.00;;;;;;5026495;28;20069;-75
2021/12/04 14:44:57;;;;;;;9.02;1.88;;;10.30;73.60;;;;;;5009898;28;20034;-76
2021/12/04 14:47:31;;;;;;;9.73;1.92;;;10.30;72.90;;;;;;5027792;28;20029;-79
2021/12/04 14:50:00;;;;;;;8.68;1.75;;;10.20;72.50;;;;;;5027175;28;20060;-79
2021/12/04 14:52:29;;;;;;;8.25;2.05;;;10.10;72.10;;;;;;5027730;28;20436;-85
2021/12/04 14:54:56;;;;;;;7.72;1.80;;;10.10;71.80;;;;;;5010148;28;20034;-79
2021/12/04 14:57:28;;;;;;;12.10;1.95;;;10.00;71.40;;;;;;5027949;28;20047;-76
2021/12/04 15:00:06;;;;;;;10.97;2.33;;;9.90;70.80;;;;;;5027372;28;20033;-77
2021/12/04 15:02:32;;;;;;;6.93;1.45;;;9.90;70.40;;;;;;5027106;28;20527;-76
2021/12/04 15:04:58;;;;;;;10.45;2.10;;;9.90;70.50;;;;;;5027398;28;20025;-75
2021/12/04 15:07:32;;;;;;;9.02;1.70;;;9.80;70.10;;;;;;5010103;28;20120;-78
2021/12/04 15:09:59;;;;;;;7.25;1.98;;;9.80;69.80;;;;;;5025885;28;20087;-74
2021/12/04 15:12:34;;;;;;;6.75;1.80;;;9.70;69.40;;;;;;5027027;28;20087;-77
2021/12/04 15:15:07;;;;;;;7.28;2.38;;;9.70;70.00;;;;;;5027137;28;20392;-76
2021/12/04 15:17:34;;;;;;;5.78;1.60;;;9.90;71.20;;;;;;5027623;28;20386;-76
2021/12/04 15:20:05;;;;;;;8.68;1.58;;;10.00;71.80;;;;;;5026102;28;20165;-80
2021/12/04 15:22:38;;;;;;;5.85;2.33;;;10.10;72.10;;;;;;5026514;28;20049;-76
2021/12/04 15:25:08;;;;;;;;;;;10.20;72.30;;;;;;5018017;28;20124;-75
2021/12/04 15:27:34;;;;;;;4.90;1.58;;;10.20;72.30;;;;;;5008745;28;19988;-76
2021/12/04 15:30:05;;;;;;;11.13;2.65;;;10.30;72.40;;;;;;5006212;28;20030;-75
2021/12/04 15:32:34;;;;;;;4.47;1.88;;;10.30;72.40;;;;;;5016743;28;20582;-74
2021/12/04 15:35:13;;;;;;;4.82;1.33;;;10.30;72.40;;;;;;5009124;28;20432;-74
2021/12/04 15:37:47;;;;;;;9.13;2.83;;;10.30;72.40;;;;;;5026700;28;20034;-74
2021/12/04 15:40:56;;;;;;;6.00;1.60;;;10.30;72.40;;;;;;5027083;28;20171;-77
2021/12/04 15:43:38;;;;;;;5.70;1.75;;;10.20;72.20;;;;;;5018573;28;20303;-76
2021/12/04 15:54:25;;;;;;;9.15;1.95;;;10.00;72.10;;;;;;5022772;28;20037;-73
2021/12/04 15:56:55;;;;;;;7.72;1.60;;;10.00;72.20;;;;;;5042065;28;20026;-78
2021/12/04 15:59:29;;;;;;;6.78;1.20;;;9.90;72.10;;;;;;5026744;28;20513;-73
2021/12/04 16:01:58;;;;;;;3.22;1.20;;;9.80;71.90;;;;;;5026439;28;20038;-74
2021/12/04 16:04:27;;;;;;;4.97;1.38;;;9.80;72.10;;;;;;5025326;28;20033;-72
2021/12/04 16:06:54;;;;;;;8.02;1.17;;;9.70;71.90;;;;;;5026364;28;20029;-75
2021/12/04 16:09:32;;;;;;;2.63;1.10;;;9.80;72.20;;;;;;5026435;28;20030;-73
2021/12/04 16:12:07;;;;;;;2.40;1.15;;;9.70;72.00;;;;;;5024840;28;20033;-75
2021/12/04 16:14:36;;;;;;;5.05;1.15;;;9.70;72.10;;;;;;5021311;28;20485;-75
2021/12/04 16:17:03;;;;;;;5.10;1.30;;;9.70;72.10;;;;;;5024321;28;20036;-74
2021/12/04 16:19:32;;;;;;;6.00;1.17;;;9.70;72.00;;;;;;5012229;28;20041;-74
2021/12/04 16:22:02;;;;;;;4.57;1.15;;;9.60;71.70;;;;;;5011824;28;20073;-74